sensor_id;sensor_type;location;lat;lon;timestamp;P1;durP1;ratioP1;P2;durP2;ratioP2
76693;SDS011;69667;52.136;5.424;2023-07-31T00:01:06;3.17;;;0.80;;
76693;SDS011;69667;52.136;5.424;2023-07-31T00:03:34;5.38;;;0.73;;
76693;SDS011;69667;52.136;5.424;2023-07-31T00:06:02;4.63;;;0.90;;
76693;SDS011;69667;52.136;5.424;2023-07-31T00:08:31;5.35;;;0.80;;
76693;SDS011;69667;52.136;5.424;2023-07-31T00:10:59;2.75;;;0.82;;
76693;SDS011;69667;52.136;5.424;2023-07-31T00:13:27;3.85;;;0.90;;
76693;SDS011;69667;52.136;5.424;2023-07-31T00:15:55;2.65;;;0.85;;
76693;SDS011;69667;52.136;5.424;2023-07-31T00:18:24;3.65;;;1.30;;
76693;SDS011;69667;52.136;5.424;2023-07-31T00:20:52;4.50;;;0.88;;
76693;SDS011;69667;52.136;5.424;2023-07-31T00:23:20;2.75;;;0.93;;
76693;SDS011;69667;52.136;5.424;2023-07-31T00:25:48;3.13;;;1.10;;
76693;SDS011;69667;52.136;5.424;2023-07-31T00:28:17;3.22;;;1.40;;
76693;SDS011;69667;52.136;5.424;2023-07-31T00:30:45;3.13;;;1.45;;
76693;SDS011;69667;52.136;5.424;2023-07-31T00:33:13;5.65;;;1.63;;
76693;SDS011;69667;52.136;5.424;2023-07-31T00:35:41;4.95;;;1.83;;
76693;SDS011;69667;52.136;5.424;2023-07-31T00:38:10;4.47;;;1.70;;
76693;SDS011;69667;52.136;5.424;2023-07-31T00:40:39;8.55;;;2.60;;
76693;SDS011;69667;52.136;5.424;2023-07-31T00:43:07;10.50;;;2.83;;
76693;SDS011;69667;52.136;5.424;2023-07-31T00:45:36;10.77;;;2.40;;
76693;SDS011;69667;52.136;5.424;2023-07-31T00:48:04;15.50;;;3.03;;
76693;SDS011;69667;52.136;5.424;2023-07-31T00:50:34;19.33;;;3.47;;
76693;SDS011;69667;52.136;5.424;2023-07-31T00:53:03;18.77;;;3.25;;
76693;SDS011;69667;52.136;5.424;2023-07-31T00:55:32;22.92;;;3.83;;
76693;SDS011;69667;52.136;5.424;2023-07-31T00:58:01;20.30;;;3.97;;
76693;SDS011;69667;52.136;5.424;2023-07-31T01:00:29;16.85;;;3.83;;
76693;SDS011;69667;52.136;5.424;2023-07-31T01:02:58;26.02;;;4.15;;
76693;SDS011;69667;52.136;5.424;2023-07-31T01:05:32;26.55;;;4.43;;
76693;SDS011;69667;52.136;5.424;2023-07-31T01:08:12;26.20;;;4.22;;
76693;SDS011;69667;52.136;5.424;2023-07-31T01:10:55;23.70;;;4.85;;
76693;SDS011;69667;52.136;5.424;2023-07-31T01:13:28;27.20;;;4.88;;
76693;SDS011;69667;52.136;5.424;2023-07-31T01:15:57;21.08;;;4.63;;
76693;SDS011;69667;52.136;5.424;2023-07-31T01:18:26;28.85;;;4.90;;
76693;SDS011;69667;52.136;5.424;2023-07-31T01:20:57;22.67;;;4.38;;
76693;SDS011;69667;52.136;5.424;2023-07-31T01:26:47;10.50;;;3.00;;
76693;SDS011;69667;52.136;5.424;2023-07-31T01:31:58;11.00;;;2.47;;
76693;SDS011;69667;52.136;5.424;2023-07-31T01:34:29;12.68;;;2.63;;
76693;SDS011;69667;52.136;5.424;2023-07-31T01:36:59;8.75;;;2.13;;
76693;SDS011;69667;52.136;5.424;2023-07-31T01:39:27;11.68;;;2.83;;
76693;SDS011;69667;52.136;5.424;2023-07-31T01:41:55;7.65;;;2.35;;
76693;SDS011;69667;52.136;5.424;2023-07-31T01:44:23;11.77;;;2.33;;
76693;SDS011;69667;52.136;5.424;2023-07-31T01:46:52;11.85;;;2.38;;
76693;SDS011;69667;52.136;5.424;2023-07-31T01:49:20;11.52;;;3.05;;
76693;SDS011;69667;52.136;5.424;2023-07-31T01:51:48;18.27;;;3.47;;
76693;SDS011;69667;52.136;5.424;2023-07-31T01:54:16;19.75;;;3.33;;
76693;SDS011;69667;52.136;5.424;2023-07-31T01:56:45;18.77;;;4.38;;
76693;SDS011;69667;52.136;5.424;2023-07-31T01:59:13;27.13;;;4.47;;
76693;SDS011;69667;52.136;5.424;2023-07-31T02:01:41;34.08;;;5.78;;
76693;SDS011;69667;52.136;5.424;2023-07-31T02:04:09;29.65;;;5.63;;
76693;SDS011;69667;52.136;5.424;2023-07-31T02:06:38;22.13;;;4.57;;
76693;SDS011;69667;52.136;5.424;2023-07-31T02:09:07;19.70;;;4.95;;
76693;SDS011;69667;52.136;5.424;2023-07-31T02:11:35;19.55;;;4.18;;
76693;SDS011;69667;52.136;5.424;2023-07-31T02:14:04;21.02;;;3.50;;
76693;SDS011;69667;52.136;5.424;2023-07-31T02:16:32;16.48;;;3.65;;
76693;SDS011;69667;52.136;5.424;2023-07-31T02:19:00;15.65;;;3.65;;
76693;SDS011;69667;52.136;5.424;2023-07-31T02:21:29;20.73;;;3.72;;
76693;SDS011;69667;52.136;5.424;2023-07-31T02:23:57;20.48;;;3.85;;
76693;SDS011;69667;52.136;5.424;2023-07-31T02:26:25;18.95;;;4.68;;
76693;SDS011;69667;52.136;5.424;2023-07-31T02:31:22;23.42;;;4.15;;
76693;SDS011;69667;52.136;5.424;2023-07-31T02:33:50;24.00;;;4.63;;
76693;SDS011;69667;52.136;5.424;2023-07-31T02:36:18;18.83;;;4.20;;
76693;SDS011;69667;52.136;5.424;2023-07-31T02:38:47;16.90;;;3.50;;
76693;SDS011;69667;52.136;5.424;2023-07-31T02:41:15;21.65;;;3.92;;
76693;SDS011;69667;52.136;5.424;2023-07-31T02:43:43;21.85;;;3.78;;
76693;SDS011;69667;52.136;5.424;2023-07-31T02:46:12;17.50;;;4.47;;
76693;SDS011;69667;52.136;5.424;2023-07-31T02:48:40;24.45;;;4.20;;
76693;SDS011;69667;52.136;5.424;2023-07-31T02:51:08;22.58;;;3.97;;
76693;SDS011;69667;52.136;5.424;2023-07-31T02:53:37;16.17;;;3.63;;
76693;SDS011;69667;52.136;5.424;2023-07-31T02:56:05;19.98;;;3.75;;
76693;SDS011;69667;52.136;5.424;2023-07-31T02:58:33;19.45;;;3.92;;
76693;SDS011;69667;52.136;5.424;2023-07-31T03:01:02;21.80;;;3.97;;
76693;SDS011;69667;52.136;5.424;2023-07-31T03:03:30;26.73;;;4.28;;
76693;SDS011;69667;52.136;5.424;2023-07-31T03:05:59;19.48;;;4.57;;
76693;SDS011;69667;52.136;5.424;2023-07-31T03:08:27;15.75;;;3.85;;
76693;SDS011;69667;52.136;5.424;2023-07-31T03:10:56;15.95;;;3.92;;
76693;SDS011;69667;52.136;5.424;2023-07-31T03:13:24;25.63;;;4.85;;
76693;SDS011;69667;52.136;5.424;2023-07-31T03:15:53;14.82;;;4.07;;
76693;SDS011;69667;52.136;5.424;2023-07-31T03:18:21;22.00;;;4.80;;
76693;SDS011;69667;52.136;5.424;2023-07-31T03:20:50;20.73;;;4.97;;
76693;SDS011;69667;52.136;5.424;2023-07-31T03:23:18;25.85;;;4.60;;
76693;SDS011;69667;52.136;5.424;2023-07-31T03:25:59;24.70;;;4.57;;
76693;SDS011;69667;52.136;5.424;2023-07-31T03:28:30;23.23;;;4.43;;
76693;SDS011;69667;52.136;5.424;2023-07-31T03:30:58;17.50;;;4.55;;
76693;SDS011;69667;52.136;5.424;2023-07-31T03:33:27;25.80;;;5.13;;
76693;SDS011;69667;52.136;5.424;2023-07-31T03:35:56;22.60;;;4.53;;
76693;SDS011;69667;52.136;5.424;2023-07-31T03:38:24;21.02;;;4.57;;
76693;SDS011;69667;52.136;5.424;2023-07-31T03:40:53;23.58;;;4.45;;
76693;SDS011;69667;52.136;5.424;2023-07-31T03:43:21;22.98;;;4.75;;
76693;SDS011;69667;52.136;5.424;2023-07-31T03:45:49;21.58;;;4.90;;
76693;SDS011;69667;52.136;5.424;2023-07-31T03:48:18;26.55;;;5.20;;
76693;SDS011;69667;52.136;5.424;2023-07-31T03:50:46;22.67;;;5.68;;
76693;SDS011;69667;52.136;5.424;2023-07-31T03:53:16;20.00;;;4.80;;
76693;SDS011;69667;52.136;5.424;2023-07-31T03:55:44;28.65;;;5.18;;
76693;SDS011;69667;52.136;5.424;2023-07-31T03:58:12;25.73;;;5.22;;
76693;SDS011;69667;52.136;5.424;2023-07-31T04:00:40;24.50;;;5.50;;
76693;SDS011;69667;52.136;5.424;2023-07-31T04:03:09;19.27;;;4.43;;
76693;SDS011;69667;52.136;5.424;2023-07-31T04:05:37;26.30;;;5.20;;
76693;SDS011;69667;52.136;5.424;2023-07-31T04:08:07;24.05;;;4.72;;
76693;SDS011;69667;52.136;5.424;2023-07-31T04:10:35;27.02;;;5.25;;
76693;SDS011;69667;52.136;5.424;2023-07-31T04:13:04;18.00;;;5.45;;
76693;SDS011;69667;52.136;5.424;2023-07-31T04:15:32;22.63;;;5.05;;
76693;SDS011;69667;52.136;5.424;2023-07-31T04:18:00;17.67;;;4.88;;
76693;SDS011;69667;52.136;5.424;2023-07-31T04:20:29;19.15;;;5.03;;
76693;SDS011;69667;52.136;5.424;2023-07-31T04:22:57;26.20;;;4.82;;
76693;SDS011;69667;52.136;5.424;2023-07-31T04:25:25;22.55;;;4.85;;
76693;SDS011;69667;52.136;5.424;2023-07-31T04:27:53;23.52;;;5.28;;
76693;SDS011;69667;52.136;5.424;2023-07-31T04:30:22;21.55;;;5.88;;
76693;SDS011;69667;52.136;5.424;2023-07-31T04:32:50;20.20;;;5.88;;
76693;SDS011;69667;52.136;5.424;2023-07-31T04:35:18;20.73;;;5.38;;
76693;SDS011;69667;52.136;5.424;2023-07-31T04:37:47;23.38;;;4.88;;
76693;SDS011;69667;52.136;5.424;2023-07-31T04:40:16;18.70;;;4.78;;
76693;SDS011;69667;52.136;5.424;2023-07-31T04:42:44;27.50;;;5.03;;
76693;SDS011;69667;52.136;5.424;2023-07-31T04:45:13;16.95;;;4.32;;
76693;SDS011;69667;52.136;5.424;2023-07-31T04:47:41;19.77;;;4.78;;
76693;SDS011;69667;52.136;5.424;2023-07-31T04:50:10;16.50;;;5.25;;
76693;SDS011;69667;52.136;5.424;2023-07-31T04:52:38;23.17;;;4.88;;
76693;SDS011;69667;52.136;5.424;2023-07-31T04:55:06;21.35;;;4.93;;
76693;SDS011;69667;52.136;5.424;2023-07-31T04:57:35;23.52;;;4.88;;
76693;SDS011;69667;52.136;5.424;2023-07-31T05:00:03;16.80;;;4.35;;
76693;SDS011;69667;52.136;5.424;2023-07-31T05:05:00;15.38;;;4.40;;
76693;SDS011;69667;52.136;5.424;2023-07-31T05:07:28;22.27;;;4.57;;
76693;SDS011;69667;52.136;5.424;2023-07-31T05:09:57;13.00;;;4.20;;
76693;SDS011;69667;52.136;5.424;2023-07-31T05:12:25;20.52;;;4.68;;
76693;SDS011;69667;52.136;5.424;2023-07-31T05:14:53;18.20;;;4.88;;
76693;SDS011;69667;52.136;5.424;2023-07-31T05:17:22;17.98;;;4.30;;
76693;SDS011;69667;52.136;5.424;2023-07-31T05:19:50;16.55;;;4.22;;
76693;SDS011;69667;52.136;5.424;2023-07-31T05:22:18;14.27;;;4.03;;
76693;SDS011;69667;52.136;5.424;2023-07-31T05:24:46;18.25;;;4.43;;
76693;SDS011;69667;52.136;5.424;2023-07-31T05:27:15;17.13;;;4.82;;
76693;SDS011;69667;52.136;5.424;2023-07-31T05:29:45;13.63;;;4.32;;
76693;SDS011;69667;52.136;5.424;2023-07-31T05:32:13;15.60;;;4.40;;
76693;SDS011;69667;52.136;5.424;2023-07-31T05:34:42;15.02;;;4.55;;
76693;SDS011;69667;52.136;5.424;2023-07-31T05:37:10;13.98;;;4.07;;
76693;SDS011;69667;52.136;5.424;2023-07-31T05:39:39;10.07;;;3.30;;
76693;SDS011;69667;52.136;5.424;2023-07-31T05:42:07;10.10;;;2.78;;
76693;SDS011;69667;52.136;5.424;2023-07-31T05:44:35;12.23;;;2.92;;
76693;SDS011;69667;52.136;5.424;2023-07-31T05:47:04;11.18;;;3.08;;
76693;SDS011;69667;52.136;5.424;2023-07-31T05:49:32;9.82;;;2.75;;
76693;SDS011;69667;52.136;5.424;2023-07-31T05:52:00;6.18;;;2.83;;
76693;SDS011;69667;52.136;5.424;2023-07-31T05:54:29;7.32;;;2.80;;
76693;SDS011;69667;52.136;5.424;2023-07-31T05:59:25;6.68;;;2.47;;
76693;SDS011;69667;52.136;5.424;2023-07-31T06:01:53;10.73;;;3.42;;
76693;SDS011;69667;52.136;5.424;2023-07-31T06:04:22;12.43;;;3.05;;
76693;SDS011;69667;52.136;5.424;2023-07-31T06:06:52;8.13;;;3.75;;
76693;SDS011;69667;52.136;5.424;2023-07-31T06:09:21;9.68;;;3.47;;
76693;SDS011;69667;52.136;5.424;2023-07-31T06:11:49;11.10;;;3.42;;
76693;SDS011;69667;52.136;5.424;2023-07-31T06:14:17;8.00;;;3.40;;
76693;SDS011;69667;52.136;5.424;2023-07-31T06:16:45;11.65;;;3.53;;
76693;SDS011;69667;52.136;5.424;2023-07-31T06:19:14;10.02;;;3.45;;
76693;SDS011;69667;52.136;5.424;2023-07-31T06:21:42;11.05;;;3.38;;
76693;SDS011;69667;52.136;5.424;2023-07-31T06:24:11;13.40;;;4.20;;
76693;SDS011;69667;52.136;5.424;2023-07-31T06:26:40;10.70;;;3.22;;
76693;SDS011;69667;52.136;5.424;2023-07-31T06:29:08;8.80;;;3.10;;
76693;SDS011;69667;52.136;5.424;2023-07-31T06:31:37;9.35;;;3.53;;
76693;SDS011;69667;52.136;5.424;2023-07-31T06:34:05;8.10;;;2.97;;
76693;SDS011;69667;52.136;5.424;2023-07-31T06:36:34;8.25;;;3.13;;
76693;SDS011;69667;52.136;5.424;2023-07-31T06:39:02;9.15;;;2.50;;
76693;SDS011;69667;52.136;5.424;2023-07-31T06:41:31;6.70;;;3.13;;
76693;SDS011;69667;52.136;5.424;2023-07-31T06:44:04;5.95;;;2.78;;
76693;SDS011;69667;52.136;5.424;2023-07-31T06:46:32;6.32;;;2.85;;
76693;SDS011;69667;52.136;5.424;2023-07-31T06:49:01;9.65;;;2.70;;
76693;SDS011;69667;52.136;5.424;2023-07-31T06:51:29;6.78;;;2.50;;
76693;SDS011;69667;52.136;5.424;2023-07-31T06:53:58;8.40;;;2.50;;
76693;SDS011;69667;52.136;5.424;2023-07-31T06:56:26;8.27;;;2.60;;
76693;SDS011;69667;52.136;5.424;2023-07-31T06:58:55;5.05;;;2.28;;
76693;SDS011;69667;52.136;5.424;2023-07-31T07:01:23;7.57;;;2.63;;
76693;SDS011;69667;52.136;5.424;2023-07-31T07:03:52;5.53;;;2.67;;
76693;SDS011;69667;52.136;5.424;2023-07-31T07:06:21;6.00;;;2.85;;
76693;SDS011;69667;52.136;5.424;2023-07-31T07:08:50;5.30;;;2.70;;
76693;SDS011;69667;52.136;5.424;2023-07-31T07:11:18;8.50;;;2.67;;
76693;SDS011;69667;52.136;5.424;2023-07-31T07:13:46;5.63;;;2.67;;
76693;SDS011;69667;52.136;5.424;2023-07-31T07:16:14;5.60;;;2.67;;
76693;SDS011;69667;52.136;5.424;2023-07-31T07:18:43;8.32;;;2.28;;
76693;SDS011;69667;52.136;5.424;2023-07-31T07:21:29;7.32;;;3.28;;
76693;SDS011;69667;52.136;5.424;2023-07-31T07:23:58;7.10;;;2.85;;
76693;SDS011;69667;52.136;5.424;2023-07-31T07:26:26;8.40;;;2.65;;
76693;SDS011;69667;52.136;5.424;2023-07-31T07:28:54;6.28;;;2.95;;
76693;SDS011;69667;52.136;5.424;2023-07-31T07:31:25;7.28;;;3.10;;
76693;SDS011;69667;52.136;5.424;2023-07-31T07:33:54;5.10;;;2.85;;
76693;SDS011;69667;52.136;5.424;2023-07-31T07:36:22;5.70;;;2.85;;
76693;SDS011;69667;52.136;5.424;2023-07-31T07:38:50;3.63;;;2.40;;
76693;SDS011;69667;52.136;5.424;2023-07-31T07:41:19;5.68;;;2.80;;
76693;SDS011;69667;52.136;5.424;2023-07-31T07:43:47;5.85;;;2.53;;
76693;SDS011;69667;52.136;5.424;2023-07-31T07:46:15;7.18;;;2.78;;
76693;SDS011;69667;52.136;5.424;2023-07-31T07:48:43;4.32;;;2.40;;
76693;SDS011;69667;52.136;5.424;2023-07-31T07:51:12;5.30;;;2.83;;
76693;SDS011;69667;52.136;5.424;2023-07-31T07:53:40;8.27;;;3.15;;
76693;SDS011;69667;52.136;5.424;2023-07-31T07:56:08;4.90;;;2.50;;
76693;SDS011;69667;52.136;5.424;2023-07-31T07:58:36;3.75;;;2.55;;
76693;SDS011;69667;52.136;5.424;2023-07-31T08:01:05;3.63;;;2.25;;
76693;SDS011;69667;52.136;5.424;2023-07-31T08:03:33;8.82;;;2.70;;
76693;SDS011;69667;52.136;5.424;2023-07-31T08:06:01;6.28;;;2.65;;
76693;SDS011;69667;52.136;5.424;2023-07-31T08:08:29;4.85;;;2.05;;
76693;SDS011;69667;52.136;5.424;2023-07-31T08:10:58;4.93;;;2.03;;
76693;SDS011;69667;52.136;5.424;2023-07-31T08:13:26;3.25;;;1.83;;
76693;SDS011;69667;52.136;5.424;2023-07-31T08:15:54;3.47;;;1.88;;
76693;SDS011;69667;52.136;5.424;2023-07-31T08:18:23;4.13;;;1.77;;
76693;SDS011;69667;52.136;5.424;2023-07-31T08:20:51;3.78;;;1.85;;
76693;SDS011;69667;52.136;5.424;2023-07-31T08:23:19;4.60;;;1.75;;
76693;SDS011;69667;52.136;5.424;2023-07-31T08:25:48;3.75;;;1.60;;
76693;SDS011;69667;52.136;5.424;2023-07-31T08:28:17;5.35;;;1.63;;
76693;SDS011;69667;52.136;5.424;2023-07-31T08:30:45;4.28;;;1.67;;
76693;SDS011;69667;52.136;5.424;2023-07-31T08:33:14;2.47;;;1.40;;
76693;SDS011;69667;52.136;5.424;2023-07-31T08:35:42;3.22;;;1.40;;
76693;SDS011;69667;52.136;5.424;2023-07-31T08:38:11;3.40;;;1.33;;
76693;SDS011;69667;52.136;5.424;2023-07-31T08:40:40;5.20;;;1.85;;
76693;SDS011;69667;52.136;5.424;2023-07-31T08:43:08;2.40;;;1.30;;
76693;SDS011;69667;52.136;5.424;2023-07-31T08:45:36;2.83;;;1.30;;
76693;SDS011;69667;52.136;5.424;2023-07-31T08:48:06;2.60;;;1.40;;
76693;SDS011;69667;52.136;5.424;2023-07-31T08:50:34;3.35;;;1.50;;
76693;SDS011;69667;52.136;5.424;2023-07-31T08:53:04;3.10;;;1.50;;
76693;SDS011;69667;52.136;5.424;2023-07-31T08:55:32;2.65;;;1.23;;
76693;SDS011;69667;52.136;5.424;2023-07-31T08:58:01;2.90;;;1.30;;
76693;SDS011;69667;52.136;5.424;2023-07-31T09:00:32;2.00;;;1.20;;
76693;SDS011;69667;52.136;5.424;2023-07-31T09:03:07;2.42;;;1.33;;
76693;SDS011;69667;52.136;5.424;2023-07-31T09:05:37;2.38;;;1.25;;
76693;SDS011;69667;52.136;5.424;2023-07-31T09:08:09;2.50;;;1.20;;
76693;SDS011;69667;52.136;5.424;2023-07-31T09:10:42;2.15;;;1.17;;
76693;SDS011;69667;52.136;5.424;2023-07-31T09:13:13;4.70;;;1.50;;
76693;SDS011;69667;52.136;5.424;2023-07-31T09:15:45;2.22;;;1.30;;
76693;SDS011;69667;52.136;5.424;2023-07-31T09:18:14;3.03;;;1.38;;
76693;SDS011;69667;52.136;5.424;2023-07-31T09:20:45;1.98;;;1.15;;
76693;SDS011;69667;52.136;5.424;2023-07-31T09:23:27;3.53;;;1.52;;
76693;SDS011;69667;52.136;5.424;2023-07-31T09:26:10;2.50;;;1.40;;
76693;SDS011;69667;52.136;5.424;2023-07-31T09:28:56;3.20;;;1.48;;
76693;SDS011;69667;52.136;5.424;2023-07-31T09:31:40;2.72;;;1.50;;
76693;SDS011;69667;52.136;5.424;2023-07-31T09:34:10;3.50;;;1.88;;
76693;SDS011;69667;52.136;5.424;2023-07-31T09:36:45;3.15;;;1.58;;
76693;SDS011;69667;52.136;5.424;2023-07-31T09:39:15;2.97;;;1.60;;
76693;SDS011;69667;52.136;5.424;2023-07-31T09:41:46;3.17;;;1.58;;
76693;SDS011;69667;52.136;5.424;2023-07-31T09:44:21;4.43;;;1.63;;
76693;SDS011;69667;52.136;5.424;2023-07-31T09:49:17;2.85;;;1.60;;
76693;SDS011;69667;52.136;5.424;2023-07-31T09:51:45;2.92;;;1.60;;
76693;SDS011;69667;52.136;5.424;2023-07-31T09:54:14;3.00;;;1.55;;
76693;SDS011;69667;52.136;5.424;2023-07-31T09:56:44;3.15;;;1.50;;
76693;SDS011;69667;52.136;5.424;2023-07-31T09:59:17;2.95;;;1.55;;
76693;SDS011;69667;52.136;5.424;2023-07-31T10:01:50;3.22;;;1.83;;
76693;SDS011;69667;52.136;5.424;2023-07-31T10:04:19;2.55;;;1.55;;
76693;SDS011;69667;52.136;5.424;2023-07-31T10:06:52;3.92;;;1.70;;
76693;SDS011;69667;52.136;5.424;2023-07-31T10:09:21;3.90;;;1.63;;
76693;SDS011;69667;52.136;5.424;2023-07-31T10:11:55;2.80;;;1.40;;
76693;SDS011;69667;52.136;5.424;2023-07-31T10:14:27;2.70;;;1.40;;
76693;SDS011;69667;52.136;5.424;2023-07-31T10:16:57;3.25;;;1.40;;
76693;SDS011;69667;52.136;5.424;2023-07-31T10:19:26;4.57;;;2.03;;
76693;SDS011;69667;52.136;5.424;2023-07-31T10:21:57;4.65;;;2.17;;
76693;SDS011;69667;52.136;5.424;2023-07-31T10:24:26;3.88;;;2.22;;
76693;SDS011;69667;52.136;5.424;2023-07-31T10:26:57;4.07;;;2.38;;
76693;SDS011;69667;52.136;5.424;2023-07-31T10:29:27;4.68;;;2.53;;
76693;SDS011;69667;52.136;5.424;2023-07-31T10:31:57;5.32;;;2.42;;
76693;SDS011;69667;52.136;5.424;2023-07-31T10:34:26;5.07;;;3.00;;
76693;SDS011;69667;52.136;5.424;2023-07-31T10:37:19;5.88;;;2.63;;
76693;SDS011;69667;52.136;5.424;2023-07-31T10:42:32;6.95;;;3.13;;
76693;SDS011;69667;52.136;5.424;2023-07-31T10:45:26;6.07;;;3.22;;
76693;SDS011;69667;52.136;5.424;2023-07-31T10:48:04;7.20;;;3.17;;
76693;SDS011;69667;52.136;5.424;2023-07-31T10:50:38;6.20;;;2.88;;
76693;SDS011;69667;52.136;5.424;2023-07-31T10:53:32;5.55;;;2.70;;
76693;SDS011;69667;52.136;5.424;2023-07-31T10:56:01;5.60;;;3.17;;
76693;SDS011;69667;52.136;5.424;2023-07-31T10:58:33;4.82;;;2.88;;
76693;SDS011;69667;52.136;5.424;2023-07-31T11:01:03;4.95;;;2.55;;
76693;SDS011;69667;52.136;5.424;2023-07-31T11:03:50;4.10;;;2.80;;
76693;SDS011;69667;52.136;5.424;2023-07-31T11:06:19;4.13;;;2.60;;
76693;SDS011;69667;52.136;5.424;2023-07-31T11:08:49;6.10;;;2.95;;
76693;SDS011;69667;52.136;5.424;2023-07-31T11:11:19;3.08;;;2.13;;
76693;SDS011;69667;52.136;5.424;2023-07-31T11:13:48;4.45;;;2.45;;
76693;SDS011;69667;52.136;5.424;2023-07-31T11:16:20;2.83;;;2.13;;
76693;SDS011;69667;52.136;5.424;2023-07-31T11:18:50;4.65;;;1.92;;
76693;SDS011;69667;52.136;5.424;2023-07-31T11:21:22;5.85;;;2.05;;
76693;SDS011;69667;52.136;5.424;2023-07-31T11:23:52;2.78;;;1.90;;
76693;SDS011;69667;52.136;5.424;2023-07-31T11:26:26;3.35;;;1.55;;
76693;SDS011;69667;52.136;5.424;2023-07-31T11:28:55;3.15;;;1.98;;
76693;SDS011;69667;52.136;5.424;2023-07-31T11:31:23;2.85;;;1.40;;
76693;SDS011;69667;52.136;5.424;2023-07-31T11:34:03;4.18;;;1.60;;
76693;SDS011;69667;52.136;5.424;2023-07-31T11:36:33;2.20;;;1.52;;
76693;SDS011;69667;52.136;5.424;2023-07-31T11:39:04;2.60;;;1.52;;
76693;SDS011;69667;52.136;5.424;2023-07-31T11:41:33;3.10;;;1.80;;
76693;SDS011;69667;52.136;5.424;2023-07-31T11:44:02;3.00;;;1.40;;
76693;SDS011;69667;52.136;5.424;2023-07-31T11:46:50;2.40;;;1.60;;
76693;SDS011;69667;52.136;5.424;2023-07-31T11:49:18;4.05;;;1.95;;
76693;SDS011;69667;52.136;5.424;2023-07-31T11:51:46;2.65;;;1.70;;
76693;SDS011;69667;52.136;5.424;2023-07-31T11:54:15;3.65;;;1.95;;
76693;SDS011;69667;52.136;5.424;2023-07-31T11:56:43;3.35;;;1.80;;
76693;SDS011;69667;52.136;5.424;2023-07-31T11:59:12;4.30;;;2.35;;
76693;SDS011;69667;52.136;5.424;2023-07-31T12:01:40;5.28;;;2.50;;
76693;SDS011;69667;52.136;5.424;2023-07-31T12:04:10;3.47;;;2.25;;
76693;SDS011;69667;52.136;5.424;2023-07-31T12:06:38;5.00;;;2.28;;
76693;SDS011;69667;52.136;5.424;2023-07-31T12:09:07;4.22;;;2.67;;
76693;SDS011;69667;52.136;5.424;2023-07-31T12:11:44;5.00;;;2.80;;
76693;SDS011;69667;52.136;5.424;2023-07-31T12:14:26;4.93;;;2.72;;
76693;SDS011;69667;52.136;5.424;2023-07-31T12:16:59;5.53;;;2.67;;
76693;SDS011;69667;52.136;5.424;2023-07-31T12:19:31;5.28;;;2.30;;
76693;SDS011;69667;52.136;5.424;2023-07-31T12:24:28;3.85;;;2.20;;
76693;SDS011;69667;52.136;5.424;2023-07-31T12:29:33;4.45;;;2.20;;
76693;SDS011;69667;52.136;5.424;2023-07-31T12:32:20;3.75;;;2.40;;
76693;SDS011;69667;52.136;5.424;2023-07-31T12:34:49;3.45;;;2.15;;
76693;SDS011;69667;52.136;5.424;2023-07-31T12:37:18;2.97;;;2.13;;
76693;SDS011;69667;52.136;5.424;2023-07-31T12:39:46;3.20;;;2.13;;
76693;SDS011;69667;52.136;5.424;2023-07-31T12:42:16;3.53;;;1.75;;
76693;SDS011;69667;52.136;5.424;2023-07-31T12:44:45;3.35;;;1.85;;
76693;SDS011;69667;52.136;5.424;2023-07-31T12:47:13;3.50;;;2.60;;
76693;SDS011;69667;52.136;5.424;2023-07-31T12:52:10;4.78;;;2.10;;
76693;SDS011;69667;52.136;5.424;2023-07-31T12:54:38;3.10;;;2.08;;
76693;SDS011;69667;52.136;5.424;2023-07-31T12:57:06;3.05;;;2.20;;
76693;SDS011;69667;52.136;5.424;2023-07-31T12:59:34;4.32;;;2.55;;
76693;SDS011;69667;52.136;5.424;2023-07-31T13:02:03;4.07;;;2.50;;
76693;SDS011;69667;52.136;5.424;2023-07-31T13:04:31;3.83;;;2.25;;
76693;SDS011;69667;52.136;5.424;2023-07-31T13:06:59;4.35;;;2.75;;
76693;SDS011;69667;52.136;5.424;2023-07-31T13:09:27;3.50;;;2.65;;
76693;SDS011;69667;52.136;5.424;2023-07-31T13:11:56;5.72;;;2.67;;
76693;SDS011;69667;52.136;5.424;2023-07-31T13:14:24;4.47;;;2.55;;
76693;SDS011;69667;52.136;5.424;2023-07-31T13:16:52;3.80;;;2.63;;
76693;SDS011;69667;52.136;5.424;2023-07-31T13:19:20;3.60;;;2.63;;
76693;SDS011;69667;52.136;5.424;2023-07-31T13:21:49;5.20;;;2.90;;
76693;SDS011;69667;52.136;5.424;2023-07-31T13:24:17;4.30;;;2.80;;
76693;SDS011;69667;52.136;5.424;2023-07-31T13:26:45;4.70;;;3.00;;
76693;SDS011;69667;52.136;5.424;2023-07-31T13:29:13;5.47;;;2.92;;
76693;SDS011;69667;52.136;5.424;2023-07-31T13:31:42;3.83;;;2.58;;
76693;SDS011;69667;52.136;5.424;2023-07-31T13:34:10;5.10;;;2.92;;
76693;SDS011;69667;52.136;5.424;2023-07-31T13:36:38;4.72;;;2.72;;
76693;SDS011;69667;52.136;5.424;2023-07-31T13:41:35;6.00;;;2.65;;
76693;SDS011;69667;52.136;5.424;2023-07-31T13:44:03;4.15;;;2.63;;
76693;SDS011;69667;52.136;5.424;2023-07-31T13:46:31;4.63;;;2.50;;
76693;SDS011;69667;52.136;5.424;2023-07-31T13:49:00;5.45;;;2.58;;
76693;SDS011;69667;52.136;5.424;2023-07-31T13:51:28;2.80;;;1.60;;
76693;SDS011;69667;52.136;5.424;2023-07-31T13:53:56;2.33;;;1.60;;
76693;SDS011;69667;52.136;5.424;2023-07-31T13:56:24;3.05;;;1.45;;
76693;SDS011;69667;52.136;5.424;2023-07-31T13:58:53;2.83;;;1.48;;
76693;SDS011;69667;52.136;5.424;2023-07-31T14:01:21;2.40;;;1.77;;
76693;SDS011;69667;52.136;5.424;2023-07-31T14:03:49;2.63;;;1.67;;
76693;SDS011;69667;52.136;5.424;2023-07-31T14:06:18;4.65;;;1.55;;
76693;SDS011;69667;52.136;5.424;2023-07-31T14:08:46;3.83;;;1.30;;
76693;SDS011;69667;52.136;5.424;2023-07-31T14:11:15;4.43;;;1.20;;
76693;SDS011;69667;52.136;5.424;2023-07-31T14:13:43;3.17;;;1.65;;
76693;SDS011;69667;52.136;5.424;2023-07-31T14:16:11;2.70;;;1.63;;
76693;SDS011;69667;52.136;5.424;2023-07-31T14:18:40;2.80;;;1.75;;
76693;SDS011;69667;52.136;5.424;2023-07-31T14:23:36;6.72;;;2.20;;
76693;SDS011;69667;52.136;5.424;2023-07-31T14:26:05;5.03;;;2.95;;
76693;SDS011;69667;52.136;5.424;2023-07-31T14:28:33;5.15;;;3.30;;
76693;SDS011;69667;52.136;5.424;2023-07-31T14:33:30;7.15;;;4.55;;
76693;SDS011;69667;52.136;5.424;2023-07-31T14:35:58;7.72;;;5.00;;
76693;SDS011;69667;52.136;5.424;2023-07-31T14:38:27;5.63;;;4.53;;
76693;SDS011;69667;52.136;5.424;2023-07-31T14:40:55;7.78;;;4.72;;
76693;SDS011;69667;52.136;5.424;2023-07-31T14:43:24;9.45;;;4.72;;
76693;SDS011;69667;52.136;5.424;2023-07-31T14:45:52;7.05;;;5.28;;
76693;SDS011;69667;52.136;5.424;2023-07-31T14:48:23;9.73;;;5.47;;
76693;SDS011;69667;52.136;5.424;2023-07-31T14:50:51;7.53;;;4.97;;
76693;SDS011;69667;52.136;5.424;2023-07-31T14:53:19;8.05;;;4.80;;
76693;SDS011;69667;52.136;5.424;2023-07-31T14:55:48;6.90;;;4.70;;
76693;SDS011;69667;52.136;5.424;2023-07-31T14:58:17;6.45;;;4.30;;
76693;SDS011;69667;52.136;5.424;2023-07-31T15:00:45;7.30;;;4.18;;
76693;SDS011;69667;52.136;5.424;2023-07-31T15:03:13;6.28;;;4.07;;
76693;SDS011;69667;52.136;5.424;2023-07-31T15:05:41;10.05;;;4.72;;
76693;SDS011;69667;52.136;5.424;2023-07-31T15:10:38;7.10;;;3.28;;
76693;SDS011;69667;52.136;5.424;2023-07-31T15:13:06;5.10;;;3.30;;
76693;SDS011;69667;52.136;5.424;2023-07-31T15:15:34;5.70;;;3.20;;
76693;SDS011;69667;52.136;5.424;2023-07-31T15:18:03;5.50;;;3.00;;
76693;SDS011;69667;52.136;5.424;2023-07-31T15:20:31;6.13;;;3.00;;
76693;SDS011;69667;52.136;5.424;2023-07-31T15:23:01;7.97;;;3.50;;
76693;SDS011;69667;52.136;5.424;2023-07-31T15:25:29;8.05;;;3.72;;
76693;SDS011;69667;52.136;5.424;2023-07-31T15:27:57;4.15;;;2.97;;
76693;SDS011;69667;52.136;5.424;2023-07-31T15:30:26;4.07;;;2.83;;
76693;SDS011;69667;52.136;5.424;2023-07-31T15:32:54;4.68;;;3.35;;